sensor_id;sensor_type;location;lat;lon;timestamp;P1;durP1;ratioP1;P2;durP2;ratioP2
54959;SDS011;40860;51.710;8.736;2024-01-15T00:01:20;31.70;;;17.65;;
54959;SDS011;40860;51.710;8.736;2024-01-15T00:05:22;31.95;;;17.73;;
54959;SDS011;40860;51.710;8.736;2024-01-15T00:09:29;26.35;;;16.15;;
54959;SDS011;40860;51.710;8.736;2024-01-15T00:13:32;27.73;;;16.27;;
54959;SDS011;40860;51.710;8.736;2024-01-15T00:17:35;28.80;;;17.38;;
54959;SDS011;40860;51.710;8.736;2024-01-15T00:21:37;30.80;;;17.20;;
54959;SDS011;40860;51.710;8.736;2024-01-15T00:25:42;30.15;;;17.80;;
54959;SDS011;40860;51.710;8.736;2024-01-15T00:29:44;30.67;;;16.77;;
54959;SDS011;40860;51.710;8.736;2024-01-15T00:33:47;26.95;;;17.08;;
54959;SDS011;40860;51.710;8.736;2024-01-15T00:37:50;31.15;;;17.77;;
54959;SDS011;40860;51.710;8.736;2024-01-15T00:41:55;32.70;;;18.17;;
54959;SDS011;40860;51.710;8.736;2024-01-15T00:45:57;25.98;;;16.40;;
54959;SDS011;40860;51.710;8.736;2024-01-15T00:50:00;28.42;;;16.92;;
54959;SDS011;40860;51.710;8.736;2024-01-15T00:54:03;25.23;;;15.43;;
54959;SDS011;40860;51.710;8.736;2024-01-15T00:58:07;25.85;;;15.70;;
54959;SDS011;40860;51.710;8.736;2024-01-15T01:02:10;30.20;;;16.67;;
54959;SDS011;40860;51.710;8.736;2024-01-15T01:06:13;29.27;;;16.70;;
54959;SDS011;40860;51.710;8.736;2024-01-15T01:10:16;30.23;;;16.75;;
54959;SDS011;40860;51.710;8.736;2024-01-15T01:14:24;29.45;;;17.35;;
54959;SDS011;40860;51.710;8.736;2024-01-15T01:18:27;28.42;;;16.85;;
54959;SDS011;40860;51.710;8.736;2024-01-15T01:22:30;30.58;;;17.05;;
54959;SDS011;40860;51.710;8.736;2024-01-15T01:26:32;32.17;;;17.65;;
54959;SDS011;40860;51.710;8.736;2024-01-15T01:30:37;26.48;;;16.83;;
54959;SDS011;40860;51.710;8.736;2024-01-15T01:34:41;31.42;;;17.90;;
54959;SDS011;40860;51.710;8.736;2024-01-15T01:38:44;29.23;;;16.77;;
54959;SDS011;40860;51.710;8.736;2024-01-15T01:42:47;27.50;;;15.73;;
54959;SDS011;40860;51.710;8.736;2024-01-15T01:46:51;28.38;;;16.55;;
54959;SDS011;40860;51.710;8.736;2024-01-15T01:50:56;31.88;;;17.33;;
54959;SDS011;40860;51.710;8.736;2024-01-15T01:55:03;27.17;;;16.48;;
54959;SDS011;40860;51.710;8.736;2024-01-15T01:59:07;27.77;;;16.73;;
54959;SDS011;40860;51.710;8.736;2024-01-15T02:03:13;29.10;;;17.67;;
54959;SDS011;40860;51.710;8.736;2024-01-15T02:07:17;28.65;;;17.95;;
54959;SDS011;40860;51.710;8.736;2024-01-15T02:11:22;31.02;;;17.45;;
54959;SDS011;40860;51.710;8.736;2024-01-15T02:15:25;30.33;;;17.50;;
54959;SDS011;40860;51.710;8.736;2024-01-15T02:19:29;30.25;;;16.65;;
54959;SDS011;40860;51.710;8.736;2024-01-15T02:23:47;26.92;;;16.65;;
54959;SDS011;40860;51.710;8.736;2024-01-15T02:27:50;36.35;;;18.23;;
54959;SDS011;40860;51.710;8.736;2024-01-15T02:31:53;33.70;;;17.77;;
54959;SDS011;40860;51.710;8.736;2024-01-15T02:35:57;29.98;;;17.80;;
54959;SDS011;40860;51.710;8.736;2024-01-15T02:40:01;33.35;;;18.23;;
54959;SDS011;40860;51.710;8.736;2024-01-15T02:44:04;34.20;;;18.40;;
54959;SDS011;40860;51.710;8.736;2024-01-15T02:48:07;30.85;;;18.08;;
54959;SDS011;40860;51.710;8.736;2024-01-15T02:52:10;28.58;;;16.58;;
54959;SDS011;40860;51.710;8.736;2024-01-15T02:56:14;31.23;;;15.55;;
54959;SDS011;40860;51.710;8.736;2024-01-15T03:00:17;33.58;;;16.85;;
54959;SDS011;40860;51.710;8.736;2024-01-15T03:04:20;35.50;;;17.67;;
54959;SDS011;40860;51.710;8.736;2024-01-15T03:08:23;34.83;;;17.98;;
54959;SDS011;40860;51.710;8.736;2024-01-15T03:12:27;31.33;;;17.17;;
54959;SDS011;40860;51.710;8.736;2024-01-15T03:16:30;33.58;;;17.08;;
54959;SDS011;40860;51.710;8.736;2024-01-15T03:20:33;31.52;;;16.55;;
54959;SDS011;40860;51.710;8.736;2024-01-15T03:24:35;31.13;;;15.65;;
54959;SDS011;40860;51.710;8.736;2024-01-15T03:28:40;31.15;;;15.65;;
54959;SDS011;40860;51.710;8.736;2024-01-15T03:32:43;31.48;;;14.63;;
54959;SDS011;40860;51.710;8.736;2024-01-15T03:36:45;28.60;;;14.75;;
54959;SDS011;40860;51.710;8.736;2024-01-15T03:40:49;29.38;;;15.18;;
54959;SDS011;40860;51.710;8.736;2024-01-15T03:44:53;29.85;;;14.23;;
54959;SDS011;40860;51.710;8.736;2024-01-15T03:48:56;26.00;;;13.98;;
54959;SDS011;40860;51.710;8.736;2024-01-15T03:52:59;26.90;;;14.18;;
54959;SDS011;40860;51.710;8.736;2024-01-15T03:57:02;28.65;;;14.38;;
54959;SDS011;40860;51.710;8.736;2024-01-15T04:01:08;28.60;;;15.07;;
54959;SDS011;40860;51.710;8.736;2024-01-15T04:05:11;29.17;;;15.18;;
54959;SDS011;40860;51.710;8.736;2024-01-15T04:09:14;29.38;;;14.80;;
54959;SDS011;40860;51.710;8.736;2024-01-15T04:13:17;27.85;;;14.68;;
54959;SDS011;40860;51.710;8.736;2024-01-15T04:17:21;25.13;;;12.85;;
54959;SDS011;40860;51.710;8.736;2024-01-15T04:21:24;29.35;;;13.05;;
54959;SDS011;40860;51.710;8.736;2024-01-15T04:25:27;23.55;;;13.35;;
54959;SDS011;40860;51.710;8.736;2024-01-15T04:29:30;26.45;;;13.75;;
54959;SDS011;40860;51.710;8.736;2024-01-15T04:33:34;24.70;;;12.70;;
54959;SDS011;40860;51.710;8.736;2024-01-15T04:37:37;24.35;;;13.65;;
54959;SDS011;40860;51.710;8.736;2024-01-15T04:41:40;24.30;;;13.20;;
54959;SDS011;40860;51.710;8.736;2024-01-15T04:45:43;25.35;;;14.10;;
54959;SDS011;40860;51.710;8.736;2024-01-15T04:49:47;29.08;;;14.48;;
54959;SDS011;40860;51.710;8.736;2024-01-15T04:53:50;22.27;;;12.88;;
54959;SDS011;40860;51.710;8.736;2024-01-15T04:57:56;29.10;;;14.02;;
54959;SDS011;40860;51.710;8.736;2024-01-15T05:01:59;27.10;;;14.73;;
54959;SDS011;40860;51.710;8.736;2024-01-15T05:06:04;25.45;;;13.88;;
54959;SDS011;40860;51.710;8.736;2024-01-15T05:10:07;26.88;;;14.13;;
54959;SDS011;40860;51.710;8.736;2024-01-15T05:14:10;29.30;;;14.50;;
54959;SDS011;40860;51.710;8.736;2024-01-15T05:18:13;24.88;;;12.20;;
54959;SDS011;40860;51.710;8.736;2024-01-15T05:22:17;26.58;;;12.35;;
54959;SDS011;40860;51.710;8.736;2024-01-15T05:26:20;26.80;;;14.02;;
54959;SDS011;40860;51.710;8.736;2024-01-15T05:30:23;25.23;;;12.52;;
54959;SDS011;40860;51.710;8.736;2024-01-15T05:34:26;27.88;;;13.18;;
54959;SDS011;40860;51.710;8.736;2024-01-15T05:38:30;28.77;;;13.85;;
54959;SDS011;40860;51.710;8.736;2024-01-15T05:42:33;21.13;;;11.93;;
54959;SDS011;40860;51.710;8.736;2024-01-15T05:46:36;23.85;;;12.32;;
54959;SDS011;40860;51.710;8.736;2024-01-15T05:50:39;22.48;;;12.00;;
54959;SDS011;40860;51.710;8.736;2024-01-15T05:54:43;20.92;;;11.88;;
54959;SDS011;40860;51.710;8.736;2024-01-15T05:58:46;25.25;;;11.60;;
54959;SDS011;40860;51.710;8.736;2024-01-15T06:02:49;28.27;;;13.80;;
54959;SDS011;40860;51.710;8.736;2024-01-15T06:06:52;27.73;;;14.05;;
54959;SDS011;40860;51.710;8.736;2024-01-15T06:10:57;29.55;;;13.93;;
54959;SDS011;40860;51.710;8.736;2024-01-15T06:15:03;24.75;;;14.27;;
54959;SDS011;40860;51.710;8.736;2024-01-15T06:19:30;29.92;;;14.68;;
54959;SDS011;40860;51.710;8.736;2024-01-15T06:23:33;29.27;;;14.75;;
54959;SDS011;40860;51.710;8.736;2024-01-15T06:27:38;21.70;;;14.25;;
54959;SDS011;40860;51.710;8.736;2024-01-15T06:31:40;27.63;;;14.80;;
54959;SDS011;40860;51.710;8.736;2024-01-15T06:35:43;32.22;;;15.85;;
54959;SDS011;40860;51.710;8.736;2024-01-15T06:39:48;27.15;;;15.27;;
54959;SDS011;40860;51.710;8.736;2024-01-15T06:43:53;24.95;;;14.57;;
54959;SDS011;40860;51.710;8.736;2024-01-15T06:47:56;24.60;;;14.23;;
54959;SDS011;40860;51.710;8.736;2024-01-15T06:51:59;24.25;;;13.50;;
54959;SDS011;40860;51.710;8.736;2024-01-15T06:56:02;23.60;;;14.02;;
54959;SDS011;40860;51.710;8.736;2024-01-15T07:00:07;23.70;;;13.85;;
54959;SDS011;40860;51.710;8.736;2024-01-15T07:04:11;23.92;;;13.32;;
54959;SDS011;40860;51.710;8.736;2024-01-15T07:08:15;25.65;;;13.60;;
54959;SDS011;40860;51.710;8.736;2024-01-15T07:12:17;22.80;;;12.82;;
54959;SDS011;40860;51.710;8.736;2024-01-15T07:16:21;24.73;;;14.07;;
54959;SDS011;40860;51.710;8.736;2024-01-15T07:20:38;27.33;;;13.93;;
54959;SDS011;40860;51.710;8.736;2024-01-15T07:24:41;28.13;;;14.13;;
54959;SDS011;40860;51.710;8.736;2024-01-15T07:28:43;29.60;;;13.20;;
54959;SDS011;40860;51.710;8.736;2024-01-15T07:32:48;27.00;;;14.95;;
54959;SDS011;40860;51.710;8.736;2024-01-15T07:36:50;25.20;;;14.05;;
54959;SDS011;40860;51.710;8.736;2024-01-15T07:40:53;25.58;;;13.85;;
54959;SDS011;40860;51.710;8.736;2024-01-15T07:44:56;30.38;;;14.73;;
54959;SDS011;40860;51.710;8.736;2024-01-15T07:49:00;26.02;;;14.40;;
54959;SDS011;40860;51.710;8.736;2024-01-15T07:53:04;27.13;;;14.98;;
54959;SDS011;40860;51.710;8.736;2024-01-15T07:57:07;30.83;;;15.20;;
54959;SDS011;40860;51.710;8.736;2024-01-15T08:01:10;29.58;;;15.63;;
54959;SDS011;40860;51.710;8.736;2024-01-15T08:05:15;29.08;;;15.77;;
54959;SDS011;40860;51.710;8.736;2024-01-15T08:09:17;26.92;;;15.25;;
54959;SDS011;40860;51.710;8.736;2024-01-15T08:13:20;24.33;;;14.82;;
54959;SDS011;40860;51.710;8.736;2024-01-15T08:17:23;26.30;;;15.55;;
54959;SDS011;40860;51.710;8.736;2024-01-15T08:21:31;26.48;;;15.52;;
54959;SDS011;40860;51.710;8.736;2024-01-15T08:25:34;28.77;;;16.13;;
54959;SDS011;40860;51.710;8.736;2024-01-15T08:29:37;24.55;;;14.25;;
54959;SDS011;40860;51.710;8.736;2024-01-15T08:33:40;33.13;;;18.52;;
54959;SDS011;40860;51.710;8.736;2024-01-15T08:37:44;25.98;;;15.75;;
54959;SDS011;40860;51.710;8.736;2024-01-15T08:41:47;19.48;;;12.23;;
54959;SDS011;40860;51.710;8.736;2024-01-15T08:45:50;21.73;;;14.30;;
54959;SDS011;40860;51.710;8.736;2024-01-15T08:49:53;22.45;;;14.05;;
54959;SDS011;40860;51.710;8.736;2024-01-15T08:53:57;21.00;;;13.07;;
54959;SDS011;40860;51.710;8.736;2024-01-15T08:58:00;21.00;;;13.68;;
54959;SDS011;40860;51.710;8.736;2024-01-15T09:02:03;25.92;;;15.10;;
54959;SDS011;40860;51.710;8.736;2024-01-15T09:06:06;32.42;;;19.40;;
54959;SDS011;40860;51.710;8.736;2024-01-15T09:10:10;38.75;;;20.85;;
54959;SDS011;40860;51.710;8.736;2024-01-15T09:14:13;29.50;;;17.17;;
54959;SDS011;40860;51.710;8.736;2024-01-15T09:18:19;27.48;;;16.35;;
54959;SDS011;40860;51.710;8.736;2024-01-15T09:22:22;28.23;;;16.10;;
54959;SDS011;40860;51.710;8.736;2024-01-15T09:26:26;29.20;;;17.27;;
54959;SDS011;40860;51.710;8.736;2024-01-15T09:30:29;28.98;;;16.17;;
54959;SDS011;40860;51.710;8.736;2024-01-15T09:34:32;29.13;;;16.10;;
54959;SDS011;40860;51.710;8.736;2024-01-15T09:38:35;28.45;;;15.98;;
54959;SDS011;40860;51.710;8.736;2024-01-15T09:42:39;26.02;;;15.25;;
54959;SDS011;40860;51.710;8.736;2024-01-15T09:46:42;22.35;;;13.82;;
54959;SDS011;40860;51.710;8.736;2024-01-15T09:50:46;24.88;;;16.02;;
54959;SDS011;40860;51.710;8.736;2024-01-15T09:54:49;22.75;;;14.45;;
54959;SDS011;40860;51.710;8.736;2024-01-15T09:58:54;29.63;;;16.80;;
54959;SDS011;40860;51.710;8.736;2024-01-15T10:02:58;20.98;;;14.10;;
54959;SDS011;40860;51.710;8.736;2024-01-15T10:07:01;22.95;;;14.43;;
54959;SDS011;40860;51.710;8.736;2024-01-15T10:11:05;24.00;;;14.75;;
54959;SDS011;40860;51.710;8.736;2024-01-15T10:15:10;27.90;;;16.40;;
54959;SDS011;40860;51.710;8.736;2024-01-15T10:19:14;23.05;;;13.98;;
54959;SDS011;40860;51.710;8.736;2024-01-15T10:23:17;26.00;;;15.75;;
54959;SDS011;40860;51.710;8.736;2024-01-15T10:27:19;19.55;;;12.68;;
54959;SDS011;40860;51.710;8.736;2024-01-15T10:31:24;19.50;;;11.88;;
54959;SDS011;40860;51.710;8.736;2024-01-15T10:35:31;20.00;;;12.82;;
54959;SDS011;40860;51.710;8.736;2024-01-15T10:39:36;20.50;;;12.63;;
54959;SDS011;40860;51.710;8.736;2024-01-15T10:43:40;17.80;;;12.10;;
54959;SDS011;40860;51.710;8.736;2024-01-15T10:47:44;15.60;;;10.93;;
54959;SDS011;40860;51.710;8.736;2024-01-15T10:51:47;16.73;;;10.65;;
54959;SDS011;40860;51.710;8.736;2024-01-15T10:55:52;20.38;;;10.80;;
54959;SDS011;40860;51.710;8.736;2024-01-15T10:59:55;15.63;;;10.77;;
54959;SDS011;40860;51.710;8.736;2024-01-15T11:04:01;15.75;;;10.80;;
54959;SDS011;40860;51.710;8.736;2024-01-15T11:08:05;17.52;;;10.93;;
54959;SDS011;40860;51.710;8.736;2024-01-15T11:12:09;13.82;;;10.20;;
54959;SDS011;40860;51.710;8.736;2024-01-15T11:16:14;14.90;;;11.30;;
54959;SDS011;40860;51.710;8.736;2024-01-15T11:20:18;14.32;;;9.43;;
54959;SDS011;40860;51.710;8.736;2024-01-15T11:24:34;17.33;;;9.82;;
54959;SDS011;40860;51.710;8.736;2024-01-15T11:28:47;18.08;;;9.85;;
54959;SDS011;40860;51.710;8.736;2024-01-15T11:32:50;13.10;;;9.32;;
54959;SDS011;40860;51.710;8.736;2024-01-15T11:37:04;15.13;;;9.10;;
54959;SDS011;40860;51.710;8.736;2024-01-15T11:41:13;11.60;;;8.65;;
54959;SDS011;40860;51.710;8.736;2024-01-15T11:45:18;15.93;;;8.98;;
54959;SDS011;40860;51.710;8.736;2024-01-15T11:49:23;15.57;;;8.70;;
54959;SDS011;40860;51.710;8.736;2024-01-15T11:53:43;13.32;;;9.48;;
54959;SDS011;40860;51.710;8.736;2024-01-15T11:57:50;14.07;;;9.32;;
54959;SDS011;40860;51.710;8.736;2024-01-15T12:01:53;14.10;;;9.20;;
54959;SDS011;40860;51.710;8.736;2024-01-15T12:05:56;13.05;;;8.38;;
54959;SDS011;40860;51.710;8.736;2024-01-15T12:10:02;10.57;;;8.00;;
54959;SDS011;40860;51.710;8.736;2024-01-15T12:14:10;13.20;;;8.70;;
54959;SDS011;40860;51.710;8.736;2024-01-15T12:18:13;12.43;;;9.00;;
54959;SDS011;40860;51.710;8.736;2024-01-15T12:22:17;12.98;;;8.07;;
54959;SDS011;40860;51.710;8.736;2024-01-15T12:26:22;11.82;;;7.85;;
54959;SDS011;40860;51.710;8.736;2024-01-15T12:30:25;11.98;;;8.55;;
54959;SDS011;40860;51.710;8.736;2024-01-15T12:34:28;10.77;;;8.20;;
54959;SDS011;40860;51.710;8.736;2024-01-15T12:38:32;12.95;;;8.43;;
54959;SDS011;40860;51.710;8.736;2024-01-15T12:42:36;7.35;;;6.45;;
54959;SDS011;40860;51.710;8.736;2024-01-15T12:46:39;10.48;;;6.78;;
54959;SDS011;40860;51.710;8.736;2024-01-15T12:50:42;9.50;;;6.28;;
54959;SDS011;40860;51.710;8.736;2024-01-15T12:54:46;9.10;;;7.25;;
54959;SDS011;40860;51.710;8.736;2024-01-15T12:58:51;10.05;;;7.32;;
54959;SDS011;40860;51.710;8.736;2024-01-15T13:02:54;9.55;;;7.55;;
54959;SDS011;40860;51.710;8.736;2024-01-15T13:06:58;17.50;;;7.70;;
54959;SDS011;40860;51.710;8.736;2024-01-15T13:11:01;10.45;;;7.15;;
54959;SDS011;40860;51.710;8.736;2024-01-15T13:15:06;10.00;;;7.65;;
54959;SDS011;40860;51.710;8.736;2024-01-15T13:19:13;11.57;;;7.53;;
54959;SDS011;40860;51.710;8.736;2024-01-15T13:23:16;9.95;;;7.45;;
54959;SDS011;40860;51.710;8.736;2024-01-15T13:27:19;13.32;;;7.78;;
54959;SDS011;40860;51.710;8.736;2024-01-15T13:31:23;11.20;;;7.43;;
54959;SDS011;40860;51.710;8.736;2024-01-15T13:35:26;8.75;;;6.47;;
54959;SDS011;40860;51.710;8.736;2024-01-15T13:39:29;11.73;;;7.32;;
54959;SDS011;40860;51.710;8.736;2024-01-15T13:43:34;14.63;;;6.78;;
54959;SDS011;40860;51.710;8.736;2024-01-15T13:47:38;9.57;;;6.60;;
54959;SDS011;40860;51.710;8.736;2024-01-15T13:51:41;12.68;;;6.03;;
54959;SDS011;40860;51.710;8.736;2024-01-15T13:55:44;8.98;;;6.00;;
54959;SDS011;40860;51.710;8.736;2024-01-15T13:59:47;7.95;;;5.32;;
54959;SDS011;40860;51.710;8.736;2024-01-15T14:03:51;7.50;;;5.95;;
54959;SDS011;40860;51.710;8.736;2024-01-15T14:07:54;6.43;;;5.53;;
54959;SDS011;40860;51.710;8.736;2024-01-15T14:11:57;11.82;;;6.13;;
54959;SDS011;40860;51.710;8.736;2024-01-15T14:16:01;7.43;;;5.47;;
54959;SDS011;40860;51.710;8.736;2024-01-15T14:20:06;6.43;;;5.20;;
54959;SDS011;40860;51.710;8.736;2024-01-15T14:24:11;9.63;;;6.05;;
54959;SDS011;40860;51.710;8.736;2024-01-15T14:28:14;9.10;;;5.82;;
54959;SDS011;40860;51.710;8.736;2024-01-15T14:32:17;11.20;;;5.68;;
54959;SDS011;40860;51.710;8.736;2024-01-15T14:36:21;9.40;;;5.93;;
54959;SDS011;40860;51.710;8.736;2024-01-15T14:40:26;9.00;;;6.82;;
54959;SDS011;40860;51.710;8.736;2024-01-15T14:44:29;13.70;;;7.30;;
54959;SDS011;40860;51.710;8.736;2024-01-15T14:48:32;10.85;;;6.90;;
54959;SDS011;40860;51.710;8.736;2024-01-15T14:52:36;9.95;;;7.15;;
54959;SDS011;40860;51.710;8.736;2024-01-15T14:56:40;11.65;;;7.53;;
54959;SDS011;40860;51.710;8.736;2024-01-15T15:00:45;9.02;;;7.18;;
54959;SDS011;40860;51.710;8.736;2024-01-15T15:04:48;12.05;;;7.60;;
54959;SDS011;40860;51.710;8.736;2024-01-15T15:08:52;9.07;;;6.00;;
54959;SDS011;40860;51.710;8.736;2024-01-15T15:12:59;8.70;;;6.10;;
54959;SDS011;40860;51.710;8.736;2024-01-15T15:17:02;10.07;;;5.20;;
54959;SDS011;40860;51.710;8.736;2024-01-15T15:21:05;6.60;;;4.22;;
54959;SDS011;40860;51.710;8.736;2024-01-15T15:25:11;6.70;;;3.97;;
54959;SDS011;40860;51.710;8.736;2024-01-15T15:29:13;7.38;;;3.78;;
54959;SDS011;40860;51.710;8.736;2024-01-15T15:33:19;7.10;;;2.63;;
54959;SDS011;40860;51.710;8.736;2024-01-15T15:37:22;3.75;;;2.30;;
54959;SDS011;40860;51.710;8.736;2024-01-15T15:41:26;5.38;;;1.95;;
54959;SDS011;40860;51.710;8.736;2024-01-15T15:45:30;2.45;;;1.80;;
54959;SDS011;40860;51.710;8.736;2024-01-15T15:49:33;5.18;;;2.05;;
54959;SDS011;40860;51.710;8.736;2024-01-15T15:53:36;5.78;;;2.35;;
54959;SDS011;40860;51.710;8.736;2024-01-15T15:57:41;4.10;;;1.95;;
54959;SDS011;40860;51.710;8.736;2024-01-15T16:01:44;3.40;;;2.13;;
54959;SDS011;40860;51.710;8.736;2024-01-15T16:05:48;5.20;;;2.10;;
54959;SDS011;40860;51.710;8.736;2024-01-15T16:09:54;3.78;;;2.42;;
54959;SDS011;40860;51.710;8.736;2024-01-15T16:13:58;5.38;;;2.40;;
54959;SDS011;40860;51.710;8.736;2024-01-15T16:18:04;4.30;;;2.35;;
54959;SDS011;40860;51.710;8.736;2024-01-15T16:22:27;3.97;;;2.45;;
54959;SDS011;40860;51.710;8.736;2024-01-15T16:26:50;6.15;;;2.80;;
54959;SDS011;40860;51.710;8.736;2024-01-15T16:30:55;4.53;;;2.80;;
54959;SDS011;40860;51.710;8.736;2024-01-15T16:35:05;4.57;;;2.60;;
54959;SDS011;40860;51.710;8.736;2024-01-15T16:39:09;4.65;;;2.78;;
54959;SDS011;40860;51.710;8.736;2024-01-15T16:43:11;10.27;;;2.95;;
54959;SDS011;40860;51.710;8.736;2024-01-15T16:47:15;4.90;;;2.67;;
54959;SDS011;40860;51.710;8.736;2024-01-15T16:51:18;4.82;;;2.75;;
54959;SDS011;40860;51.710;8.736;2024-01-15T16:55:21;7.03;;;3.28;;
54959;SDS011;40860;51.710;8.736;2024-01-15T16:59:24;7.13;;;3.45;;
54959;SDS011;40860;51.710;8.736;2024-01-15T17:03:28;7.60;;;4.10;;
54959;SDS011;40860;51.710;8.736;2024-01-15T17:07:31;7.05;;;3.60;;
54959;SDS011;40860;51.710;8.736;2024-01-15T17:11:34;9.30;;;3.92;;
54959;SDS011;40860;51.710;8.736;2024-01-15T17:15:37;5.95;;;3.03;;
54959;SDS011;40860;51.710;8.736;2024-01-15T17:19:41;6.57;;;3.25;;
54959;SDS011;40860;51.710;8.736;2024-01-15T17:23:44;6.53;;;3.20;;
54959;SDS011;40860;51.710;8.736;2024-01-15T17:27:48;4.70;;;2.90;;
54959;SDS011;40860;51.710;8.736;2024-01-15T17:31:50;7.72;;;3.28;;
54959;SDS011;40860;51.710;8.736;2024-01-15T17:35:56;5.28;;;3.00;;
54959;SDS011;40860;51.710;8.736;2024-01-15T17:40:00;9.07;;;3.42;;
54959;SDS011;40860;51.710;8.736;2024-01-15T17:44:07;7.53;;;3.45;;
54959;SDS011;40860;51.710;8.736;2024-01-15T17:48:10;7.35;;;3.15;;
54959;SDS011;40860;51.710;8.736;2024-01-15T17:52:15;9.30;;;2.97;;
54959;SDS011;40860;51.710;8.736;2024-01-15T17:56:18;7.28;;;2.80;;
54959;SDS011;40860;51.710;8.736;2024-01-15T18:00:21;5.05;;;2.35;;
54959;SDS011;40860;51.710;8.736;2024-01-15T18:04:24;7.07;;;3.10;;
54959;SDS011;40860;51.710;8.736;2024-01-15T18:08:29;6.15;;;3.08;;
54959;SDS011;40860;51.710;8.736;2024-01-15T18:12:34;7.25;;;3.00;;
54959;SDS011;40860;51.710;8.736;2024-01-15T18:16:37;7.72;;;3.03;;
54959;SDS011;40860;51.710;8.736;2024-01-15T18:20:40;7.78;;;2.58;;
54959;SDS011;40860;51.710;8.736;2024-01-15T18:24:47;5.63;;;3.20;;
54959;SDS011;40860;51.710;8.736;2024-01-15T18:28:50;8.75;;;3.65;;
54959;SDS011;40860;51.710;8.736;2024-01-15T18:32:53;8.82;;;3.40;;
54959;SDS011;40860;51.710;8.736;2024-01-15T18:36:56;8.38;;;3.88;;
54959;SDS011;40860;51.710;8.736;2024-01-15T18:41:00;7.75;;;4.03;;
54959;SDS011;40860;51.710;8.736;2024-01-15T18:45:05;7.70;;;4.22;;
54959;SDS011;40860;51.710;8.736;2024-01-15T18:49:09;8.45;;;5.07;;
54959;SDS011;40860;51.710;8.736;2024-01-15T18:53:12;9.52;;;5.25;;
54959;SDS011;40860;51.710;8.736;2024-01-15T19:02:24;12.65;;;7.35;;
54959;SDS011;40860;51.710;8.736;2024-01-15T19:06:33;12.30;;;8.27;;
54959;SDS011;40860;51.710;8.736;2024-01-15T19:10:36;12.73;;;8.25;;
54959;SDS011;40860;51.710;8.736;2024-01-15T19:14:47;20.23;;;9.85;;
54959;SDS011;40860;51.710;8.736;2024-01-15T19:19:10;13.25;;;8.88;;
54959;SDS011;40860;51.710;8.736;2024-01-15T19:23:17;21.38;;;11.07;;
54959;SDS011;40860;51.710;8.736;2024-01-15T19:27:20;19.13;;;10.98;;
54959;SDS011;40860;51.710;8.736;2024-01-15T19:31:23;18.77;;;10.32;;
54959;SDS011;40860;51.710;8.736;2024-01-15T19:35:31;16.80;;;10.40;;
54959;SDS011;40860;51.710;8.736;2024-01-15T19:39:34;16.10;;;10.70;;
54959;SDS011;40860;51.710;8.736;2024-01-15T19:43:37;22.10;;;11.95;;
54959;SDS011;40860;51.710;8.736;2024-01-15T19:47:40;17.50;;;10.35;;
54959;SDS011;40860;51.710;8.736;2024-01-15T19:51:44;12.93;;;9.63;;
54959;SDS011;40860;51.710;8.736;2024-01-15T19:55:48;16.65;;;10.23;;
54959;SDS011;40860;51.710;8.736;2024-01-15T19:59:50;15.88;;;10.70;;
54959;SDS011;40860;51.710;8.736;2024-01-15T20:03:55;17.13;;;9.75;;
54959;SDS011;40860;51.710;8.736;2024-01-15T20:07:59;15.52;;;10.02;;
54959;SDS011;40860;51.710;8.736;2024-01-15T20:12:05;12.10;;;8.45;;
54959;SDS011;40860;51.710;8.736;2024-01-15T20:16:11;11.98;;;7.50;;
54959;SDS011;40860;51.710;8.736;2024-01-15T20:20:18;12.00;;;6.85;;
54959;SDS011;40860;51.710;8.736;2024-01-15T20:24:24;8.73;;;5.53;;
54959;SDS011;40860;51.710;8.736;2024-01-15T20:28:30;7.95;;;4.45;;
54959;SDS011;40860;51.710;8.736;2024-01-15T20:32:34;7.93;;;4.20;;
54959;SDS011;40860;51.710;8.736;2024-01-15T20:36:38;6.30;;;4.05;;
54959;SDS011;40860;51.710;8.736;2024-01-15T20:40:43;5.75;;;3.08;;
54959;SDS011;40860;51.710;8.736;2024-01-15T20:44:48;5.47;;;3.15;;
54959;SDS011;40860;51.710;8.736;2024-01-15T20:48:57;7.18;;;3.20;;
54959;SDS011;40860;51.710;8.736;2024-01-15T20:52:59;4.65;;;3.50;;
54959;SDS011;40860;51.710;8.736;2024-01-15T20:57:05;6.07;;;2.97;;
54959;SDS011;40860;51.710;8.736;2024-01-15T21:01:07;7.22;;;3.00;;
54959;SDS011;40860;51.710;8.736;2024-01-15T21:05:10;4.45;;;2.30;;
54959;SDS011;40860;51.710;8.736;2024-01-15T21:09:14;7.18;;;2.50;;
54959;SDS011;40860;51.710;8.736;2024-01-15T21:13:18;5.70;;;2.10;;
54959;SDS011;40860;51.710;8.736;2024-01-15T21:17:21;6.15;;;2.20;;
54959;SDS011;40860;51.710;8.736;2024-01-15T21:21:24;5.82;;;2.00;;
54959;SDS011;40860;51.710;8.736;2024-01-15T21:25:27;7.68;;;2.00;;
54959;SDS011;40860;51.710;8.736;2024-01-15T21:29:31;6.50;;;1.52;;
54959;SDS011;40860;51.710;8.736;2024-01-15T21:33:38;6.80;;;1.90;;
54959;SDS011;40860;51.710;8.736;2024-01-15T21:37:45;2.40;;;1.90;;
54959;SDS011;40860;51.710;8.736;2024-01-15T21:41:48;7.75;;;2.40;;
54959;SDS011;40860;51.710;8.736;2024-01-15T21:45:52;5.57;;;2.20;;
54959;SDS011;40860;51.710;8.736;2024-01-15T21:49:55;6.25;;;2.28;;
54959;SDS011;40860;51.710;8.736;2024-01-15T21:53:59;4.65;;;2.33;;
54959;SDS011;40860;51.710;8.736;2024-01-15T21:58:02;4.05;;;2.20;;
54959;SDS011;40860;51.710;8.736;2024-01-15T22:02:07;10.15;;;2.65;;
54959;SDS011;40860;51.710;8.736;2024-01-15T22:06:10;6.80;;;2.53;;
54959;SDS011;40860;51.710;8.736;2024-01-15T22:10:15;6.80;;;2.45;;
54959;SDS011;40860;51.710;8.736;2024-01-15T22:14:18;6.78;;;2.85;;
54959;SDS011;40860;51.710;8.736;2024-01-15T22:18:22;6.57;;;2.85;;
54959;SDS011;40860;51.710;8.736;2024-01-15T22:22:25;7.68;;;2.78;;
54959;SDS011;40860;51.710;8.736;2024-01-15T22:26:28;9.00;;;3.60;;
54959;SDS011;40860;51.710;8.736;2024-01-15T22:30:38;9.02;;;3.65;;
54959;SDS011;40860;51.710;8.736;2024-01-15T22:34:50;7.13;;;3.65;;
54959;SDS011;40860;51.710;8.736;2024-01-15T22:38:54;10.75;;;4.00;;
54959;SDS011;40860;51.710;8.736;2024-01-15T22:43:05;10.10;;;4.00;;
54959;SDS011;40860;51.710;8.736;2024-01-15T22:47:15;9.20;;;3.80;;
54959;SDS011;40860;51.710;8.736;2024-01-15T22:51:27;9.25;;;3.97;;
54959;SDS011;40860;51.710;8.736;2024-01-15T22:55:39;8.35;;;4.05;;
54959;SDS011;40860;51.710;8.736;2024-01-15T22:59:42;7.03;;;3.47;;
54959;SDS011;40860;51.710;8.736;2024-01-15T23:03:45;9.05;;;3.85;;
54959;SDS011;40860;51.710;8.736;2024-01-15T23:07:51;7.88;;;3.92;;
54959;SDS011;40860;51.710;8.736;2024-01-15T23:11:54;9.05;;;3.92;;
54959;SDS011;40860;51.710;8.736;2024-01-15T23:15:56;10.77;;;4.15;;
54959;SDS011;40860;51.710;8.736;2024-01-15T23:19:59;7.80;;;4.13;;
54959;SDS011;40860;51.710;8.736;2024-01-15T23:24:04;9.98;;;4.30;;
54959;SDS011;40860;51.710;8.736;2024-01-15T23:28:09;9.10;;;4.22;;
54959;SDS011;40860;51.710;8.736;2024-01-15T23:32:11;12.98;;;4.15;;
54959;SDS011;40860;51.710;8.736;2024-01-15T23:36:14;7.72;;;3.95;;
54959;SDS011;40860;51.710;8.736;2024-01-15T23:40:18;9.02;;;4.20;;
54959;SDS011;40860;51.710;8.736;2024-01-15T23:44:21;8.52;;;4.25;;
54959;SDS011;40860;51.710;8.736;2024-01-15T23:48:24;6.93;;;3.95;;
54959;SDS011;40860;51.710;8.736;2024-01-15T23:52:27;6.68;;;4.07;;
54959;SDS011;40860;51.710;8.736;2024-01-15T23:56:31;7.47;;;3.60;;
